Time;durP1;ratioP1;P1;durP2;ratioP2;P2;SDS_P1;SDS_P2;PMS_P1;PMS_P2;Temp;Humidity;BMP_temperature;BMP_pressure;BME280_temperature;BME280_humidity;BME280_pressure;Samples;Min_cycle;Max_cycle;Signal;HPM_P1;HPM_P2
2023/04/30 00:01:48;;;;;;;4.93;4.73;;;;;;;;;;5068951;28;20463;-70
2023/04/30 00:04:14;;;;;;;4.73;4.43;;;;;;;;;;5071380;28;20778;-67
2023/04/30 00:06:41;;;;;;;4.70;4.57;;;;;;;;;;5071541;28;20491;-67
2023/04/30 00:09:07;;;;;;;4.00;3.80;;;;;;;;;;5071696;28;20567;-68
2023/04/30 00:11:33;;;;;;;4.87;4.67;;;;;;;;;;5071457;28;20517;-67
2023/04/30 00:13:59;;;;;;;5.27;4.90;;;;;;;;;;5070163;28;20441;-68
2023/04/30 00:16:26;;;;;;;5.00;4.70;;;;;;;;;;5070357;28;20426;-67
2023/04/30 00:18:52;;;;;;;5.10;4.70;;;;;;;;;;5070265;28;20935;-67
2023/04/30 00:21:18;;;;;;;4.17;4.07;;;;;;;;;;5071496;28;20418;-70
2023/04/30 00:23:45;;;;;;;5.07;4.77;;;;;;;;;;5068803;28;20442;-67
2023/04/30 00:26:11;;;;;;;4.23;4.00;;;;;;;;;;5067359;28;20477;-67
2023/04/30 00:28:36;;;;;;;5.70;3.83;;;;;;;;;;5070313;28;20433;-67
2023/04/30 00:31:05;;;;;;;3.47;3.33;;;;;;;;;;5070780;28;20455;-67
2023/04/30 00:33:31;;;;;;;5.10;4.70;;;;;;;;;;5068699;28;20941;-67
2023/04/30 00:35:57;;;;;;;4.07;3.80;;;;;;;;;;5070269;28;20813;-66
2023/04/30 00:38:23;;;;;;;5.30;5.00;;;;;;;;;;5070658;28;20521;-67
2023/04/30 00:40:49;;;;;;;6.40;5.67;;;;;;;;;;5071132;28;20767;-67
2023/04/30 00:43:15;;;;;;;4.67;4.40;;;;;;;;;;5066114;28;20441;-66
2023/04/30 00:45:41;;;;;;;4.30;4.20;;;;;;;;;;5070826;28;20489;-67
2023/04/30 00:48:07;;;;;;;5.67;5.17;;;;;;;;;;5071108;28;20455;-67
2023/04/30 00:50:35;;;;;;;5.93;5.53;;;;;;;;;;5069937;28;20831;-69
2023/04/30 00:53:01;;;;;;;5.60;5.20;;;;;;;;;;5065969;28;20524;-66
2023/04/30 00:55:27;;;;;;;5.37;5.07;;;;;;;;;;5069399;28;20470;-68
2023/04/30 00:57:54;;;;;;;7.80;5.27;;;;;;;;;;5069475;28;20443;-66
2023/04/30 01:00:20;;;;;;;5.77;5.17;;;;;;;;;;5064423;28;20485;-67
2023/04/30 01:02:46;;;;;;;6.97;6.40;;;;;;;;;;5068301;28;21036;-68
2023/04/30 01:05:12;;;;;;;6.70;5.60;;;;;;;;;;5068401;28;20568;-69
2023/04/30 01:07:43;;;;;;;5.30;5.00;;;;;;;;;;5070001;28;20438;-67
2023/04/30 01:10:09;;;;;;;5.23;4.83;;;;;;;;;;5065678;28;20441;-68
2023/04/30 01:12:54;;;;;;;7.13;5.13;;;;;;;;;;5068975;28;20453;-67
2023/04/30 01:15:45;;;;;;;6.10;5.70;;;;;;;;;;5068015;28;20885;-68
2023/04/30 01:18:18;;;;;;;5.87;5.20;;;;;;;;;;5070673;28;20451;-71
2023/04/30 01:20:48;;;;;;;5.27;4.97;;;;;;;;;;5068150;28;20544;-67
2023/04/30 01:23:35;;;;;;;6.80;6.30;;;;;;;;;;5069302;28;20437;-68
2023/04/30 01:26:04;;;;;;;5.47;5.20;;;;;;;;;;5068784;28;20554;-67
2023/04/30 01:28:30;;;;;;;7.03;6.47;;;;;;;;;;5068197;28;20438;-71
2023/04/30 01:30:57;;;;;;;7.40;6.10;;;;;;;;;;5066192;28;20437;-67
2023/04/30 01:33:24;;;;;;;7.17;6.67;;;;;;;;;;5070371;28;20433;-69
2023/04/30 01:35:50;;;;;;;7.17;6.57;;;;;;;;;;5070131;28;20448;-73
2023/04/30 01:38:34;;;;;;;6.03;5.70;;;;;;;;;;5070203;28;20808;-71
2023/04/30 01:41:10;;;;;;;17.23;7.20;;;;;;;;;;5068513;28;20266;-69
2023/04/30 01:43:55;;;;;;;6.17;5.63;;;;;;;;;;5070077;28;20441;-69
2023/04/30 01:46:26;;;;;;;7.20;6.60;;;;;;;;;;5069120;28;20485;-71
2023/04/30 01:49:10;;;;;;;5.57;5.10;;;;;;;;;;5070185;28;20513;-67
2023/04/30 01:51:40;;;;;;;6.30;5.87;;;;;;;;;;5067244;28;20594;-66
2023/04/30 01:54:12;;;;;;;5.80;5.30;;;;;;;;;;5067790;28;20536;-68
2023/04/30 01:56:44;;;;;;;5.47;5.17;;;;;;;;;;5067245;28;20450;-69
2023/04/30 01:59:10;;;;;;;6.07;5.67;;;;;;;;;;5068653;28;20436;-71
2023/04/30 02:01:36;;;;;;;6.60;6.03;;;;;;;;;;5069618;28;20913;-69
2023/04/30 02:04:03;;;;;;;6.47;6.07;;;;;;;;;;5069548;28;20446;-73
2023/04/30 02:06:30;;;;;;;6.80;6.40;;;;;;;;;;5068066;28;20485;-70
2023/04/30 02:09:01;;;;;;;6.77;6.17;;;;;;;;;;5067212;28;20466;-68
2023/04/30 02:11:27;;;;;;;7.30;6.80;;;;;;;;;;5068125;28;20441;-66
2023/04/30 02:13:53;;;;;;;6.93;6.33;;;;;;;;;;5060633;28;20932;-68
2023/04/30 02:16:19;;;;;;;7.17;6.57;;;;;;;;;;5067173;28;20524;-69
2023/04/30 02:18:45;;;;;;;7.27;6.57;;;;;;;;;;5067953;28;20430;-68
2023/04/30 02:21:11;;;;;;;6.97;6.57;;;;;;;;;;5068571;28;20430;-67
2023/04/30 02:23:37;;;;;;;6.57;6.07;;;;;;;;;;5068208;28;21012;-66
2023/04/30 02:26:03;;;;;;;12.57;5.97;;;;;;;;;;5069232;28;20569;-67
2023/04/30 02:28:30;;;;;;;7.37;6.80;;;;;;;;;;5069796;28;20906;-67
2023/04/30 02:30:56;;;;;;;7.90;6.90;;;;;;;;;;5067788;28;20428;-69
2023/04/30 02:33:22;;;;;;;7.77;7.00;;;;;;;;;;5069074;28;20430;-70
2023/04/30 02:35:48;;;;;;;9.23;8.43;;;;;;;;;;5065218;28;20452;-70
2023/04/30 02:38:14;;;;;;;5.97;5.47;;;;;;;;;;5067306;28;20441;-69
2023/04/30 02:40:43;;;;;;;8.83;7.93;;;;;;;;;;5068771;28;20521;-71
2023/04/30 02:43:10;;;;;;;9.70;8.10;;;;;;;;;;5068617;28;20479;-70
2023/04/30 02:45:36;;;;;;;8.43;7.77;;;;;;;;;;5066833;28;20509;-70
2023/04/30 02:48:02;;;;;;;7.97;7.17;;;;;;;;;;5068123;28;20510;-71
2023/04/30 02:50:28;;;;;;;8.90;7.83;;;;;;;;;;5068519;28;20516;-67
2023/04/30 02:52:54;;;;;;;7.57;7.07;;;;;;;;;;5067134;28;20517;-69
2023/04/30 02:55:20;;;;;;;8.43;7.63;;;;;;;;;;5066795;28;20472;-68
2023/04/30 02:57:46;;;;;;;9.50;8.03;;;;;;;;;;5067287;28;20449;-68
2023/04/30 03:00:13;;;;;;;9.37;8.50;;;;;;;;;;5068762;28;20441;-68
2023/04/30 03:02:39;;;;;;;7.50;6.90;;;;;;;;;;5067414;28;20468;-66
2023/04/30 03:05:06;;;;;;;8.80;8.00;;;;;;;;;;5068945;28;20485;-67
2023/04/30 03:07:32;;;;;;;5.83;5.43;;;;;;;;;;5067091;28;20519;-71
2023/04/30 03:09:58;;;;;;;8.57;7.77;;;;;;;;;;5072478;28;20901;-68
2023/04/30 03:12:24;;;;;;;11.83;8.67;;;;;;;;;;5073023;28;20426;-69
2023/04/30 03:14:51;;;;;;;8.87;8.03;;;;;;;;;;5069896;28;20447;-72
2023/04/30 03:17:17;;;;;;;9.03;8.20;;;;;;;;;;5071570;28;20499;-67
2023/04/30 03:19:43;;;;;;;9.27;8.47;;;;;;;;;;5071946;28;20534;-68
2023/04/30 03:22:09;;;;;;;8.70;7.80;;;;;;;;;;5069845;28;20468;-67
2023/04/30 03:24:35;;;;;;;12.27;8.60;;;;;;;;;;5072560;28;20936;-67
2023/04/30 03:27:02;;;;;;;8.77;7.90;;;;;;;;;;5072399;28;20488;-68
2023/04/30 03:29:28;;;;;;;7.90;7.30;;;;;;;;;;5068962;28;20904;-71
2023/04/30 03:31:54;;;;;;;11.40;7.70;;;;;;;;;;5072782;28;20437;-71
2023/04/30 03:34:20;;;;;;;8.83;8.03;;;;;;;;;;5072369;28;20487;-70
2023/04/30 03:36:46;;;;;;;12.57;9.20;;;;;;;;;;5070037;28;20448;-73
2023/04/30 03:39:12;;;;;;;8.67;7.93;;;;;;;;;;5068651;28;20491;-70
2023/04/30 03:41:38;;;;;;;14.50;8.07;;;;;;;;;;5072468;28;20941;-72
2023/04/30 03:44:04;;;;;;;8.10;7.07;;;;;;;;;;5070710;28;20452;-72
2023/04/30 03:46:30;;;;;;;6.67;6.17;;;;;;;;;;5072474;28;20489;-71
2023/04/30 03:48:56;;;;;;;8.40;7.60;;;;;;;;;;5071464;28;20835;-70
2023/04/30 03:51:22;;;;;;;7.90;6.80;;;;;;;;;;5069981;28;20841;-72
2023/04/30 03:53:48;;;;;;;12.53;8.10;;;;;;;;;;5069879;28;20444;-72
2023/04/30 03:56:14;;;;;;;14.23;7.70;;;;;;;;;;5071908;28;20940;-73
2023/04/30 03:58:40;;;;;;;9.87;8.87;;;;;;;;;;5070334;28;20527;-68
2023/04/30 04:01:06;;;;;;;9.23;8.53;;;;;;;;;;5071108;28;20876;-70
2023/04/30 04:03:34;;;;;;;8.97;8.17;;;;;;;;;;5070517;28;20429;-67
2023/04/30 04:06:00;;;;;;;9.07;8.37;;;;;;;;;;5068825;28;20525;-72
2023/04/30 04:08:26;;;;;;;8.43;7.83;;;;;;;;;;5071408;28;20889;-72
2023/04/30 04:10:52;;;;;;;8.57;7.90;;;;;;;;;;5070343;28;20448;-67
2023/04/30 04:13:18;;;;;;;8.53;7.93;;;;;;;;;;5070065;28;20440;-71
2023/04/30 04:15:43;;;;;;;9.20;8.17;;;;;;;;;;5069232;28;20827;-71
2023/04/30 04:18:09;;;;;;;7.90;7.20;;;;;;;;;;5065955;28;20898;-69
2023/04/30 04:20:35;;;;;;;7.90;6.80;;;;;;;;;;5062489;28;20454;-70
2023/04/30 04:23:01;;;;;;;8.40;7.70;;;;;;;;;;5070586;28;20437;-74
2023/04/30 04:25:27;;;;;;;7.23;6.73;;;;;;;;;;5068935;28;20476;-71
2023/04/30 04:27:53;;;;;;;8.90;8.17;;;;;;;;;;5071519;28;20441;-70
2023/04/30 04:30:19;;;;;;;6.73;6.27;;;;;;;;;;5070011;28;20438;-71
2023/04/30 04:32:47;;;;;;;7.60;7.00;;;;;;;;;;5069137;28;20776;-71
2023/04/30 04:35:13;;;;;;;9.60;7.10;;;;;;;;;;5066964;28;20465;-68
2023/04/30 04:37:41;;;;;;;7.07;6.47;;;;;;;;;;5071885;28;20806;-69
2023/04/30 04:40:07;;;;;;;8.80;7.80;;;;;;;;;;5070784;28;20525;-68
2023/04/30 04:42:33;;;;;;;6.83;5.90;;;;;;;;;;5070658;28;20902;-69
2023/04/30 04:44:59;;;;;;;9.73;7.20;;;;;;;;;;5067151;28;20590;-72
2023/04/30 04:47:26;;;;;;;6.53;6.07;;;;;;;;;;5071522;28;20949;-72
2023/04/30 04:49:52;;;;;;;4.90;4.60;;;;;;;;;;5067739;28;20436;-67
2023/04/30 04:52:18;;;;;;;6.63;6.13;;;;;;;;;;5070600;28;20437;-69
2023/04/30 04:54:44;;;;;;;7.47;6.40;;;;;;;;;;5069632;28;20444;-70
2023/04/30 04:57:10;;;;;;;5.83;5.53;;;;;;;;;;5068482;28;20477;-67
2023/04/30 04:59:36;;;;;;;6.80;6.30;;;;;;;;;;5068385;28;20429;-69
2023/04/30 05:02:02;;;;;;;5.10;4.87;;;;;;;;;;5070920;28;21916;-74
2023/04/30 05:04:29;;;;;;;5.20;4.70;;;;;;;;;;5069297;28;20433;-70
2023/04/30 05:06:55;;;;;;;5.80;5.23;;;;;;;;;;5068388;28;20484;-68
2023/04/30 05:09:21;;;;;;;5.53;5.23;;;;;;;;;;5070427;28;20488;-67
2023/04/30 05:11:48;;;;;;;6.40;5.63;;;;;;;;;;5070278;28;20445;-72
2023/04/30 05:14:14;;;;;;;6.70;6.20;;;;;;;;;;5068172;28;20438;-71
2023/04/30 05:16:40;;;;;;;7.40;6.70;;;;;;;;;;5069324;28;20971;-69
2023/04/30 05:19:08;;;;;;;5.10;4.70;;;;;;;;;;5067499;28;20437;-72
2023/04/30 05:21:34;;;;;;;6.60;6.10;;;;;;;;;;5068418;28;20873;-71
2023/04/30 05:24:00;;;;;;;6.83;6.13;;;;;;;;;;5066850;28;20452;-72
2023/04/30 05:26:26;;;;;;;5.97;5.57;;;;;;;;;;5064491;28;20847;-72
2023/04/30 05:28:52;;;;;;;5.93;5.53;;;;;;;;;;5068776;28;20994;-71
2023/04/30 05:31:18;;;;;;;5.80;5.40;;;;;;;;;;5069259;28;20429;-70
2023/04/30 05:33:44;;;;;;;5.80;5.40;;;;;;;;;;5068973;28;20436;-69
2023/04/30 05:36:10;;;;;;;4.57;3.77;;;;;;;;;;5067194;28;20437;-70
2023/04/30 05:38:36;;;;;;;5.00;4.80;;;;;;;;;;5066815;28;20441;-72
2023/04/30 05:41:02;;;;;;;4.87;4.67;;;;;;;;;;5069710;28;20586;-71
2023/04/30 05:43:28;;;;;;;4.87;4.57;;;;;;;;;;5069069;28;20426;-70
2023/04/30 05:45:54;;;;;;;4.77;4.07;;;;;;;;;;5066322;28;20489;-71
2023/04/30 05:48:20;;;;;;;4.83;4.40;;;;;;;;;;5070723;28;20491;-67
2023/04/30 05:50:46;;;;;;;4.20;4.00;;;;;;;;;;5067429;28;20437;-71
2023/04/30 05:53:13;;;;;;;5.10;4.80;;;;;;;;;;5070303;28;20413;-70
2023/04/30 05:55:39;;;;;;;6.03;5.63;;;;;;;;;;5066409;28;20441;-71
2023/04/30 05:58:05;;;;;;;4.50;4.30;;;;;;;;;;5068815;28;20797;-67
2023/04/30 06:00:32;;;;;;;4.10;3.90;;;;;;;;;;5063451;28;20430;-70
2023/04/30 06:02:58;;;;;;;4.53;4.33;;;;;;;;;;5061448;28;20444;-68
2023/04/30 06:05:25;;;;;;;4.47;4.27;;;;;;;;;;5067384;28;20473;-68
2023/04/30 06:07:52;;;;;;;4.30;4.00;;;;;;;;;;5068799;28;20502;-70
2023/04/30 06:10:18;;;;;;;5.30;4.90;;;;;;;;;;5066837;28;20437;-69
2023/04/30 06:12:44;;;;;;;3.90;3.40;;;;;;;;;;5066708;28;20524;-68
2023/04/30 06:15:10;;;;;;;4.90;4.17;;;;;;;;;;5068279;28;20426;-67
2023/04/30 06:17:36;;;;;;;4.77;4.07;;;;;;;;;;5067434;28;20438;-68
2023/04/30 06:20:05;;;;;;;4.73;4.10;;;;;;;;;;5066372;28;20444;-67
2023/04/30 06:22:32;;;;;;;4.47;4.37;;;;;;;;;;5069076;28;20444;-68
2023/04/30 06:24:58;;;;;;;4.53;4.33;;;;;;;;;;5067612;28;20452;-67
2023/04/30 06:27:27;;;;;;;3.83;3.30;;;;;;;;;;5066270;28;21004;-68
2023/04/30 06:29:54;;;;;;;4.30;3.90;;;;;;;;;;5064821;28;20453;-74
2023/04/30 06:32:19;;;;;;;3.80;3.43;;;;;;;;;;5068372;28;20461;-71
2023/04/30 06:34:46;;;;;;;4.43;4.20;;;;;;;;;;5062905;28;20476;-67
2023/04/30 06:37:12;;;;;;;3.80;3.60;;;;;;;;;;5064258;28;20441;-69
2023/04/30 06:39:38;;;;;;;3.40;3.30;;;;;;;;;;5065063;28;20437;-68
2023/04/30 06:42:04;;;;;;;3.90;3.70;;;;;;;;;;5061274;28;20483;-69
2023/04/30 06:44:30;;;;;;;3.37;3.20;;;;;;;;;;5066955;28;20432;-68
2023/04/30 06:46:56;;;;;;;3.93;3.63;;;;;;;;;;5064012;28;20495;-67
2023/04/30 06:49:22;;;;;;;3.03;2.93;;;;;;;;;;5065262;28;20452;-68
2023/04/30 06:51:48;;;;;;;5.57;3.00;;;;;;;;;;5067031;28;20949;-65
2023/04/30 06:54:14;;;;;;;3.47;3.37;;;;;;;;;;5066890;28;20949;-66
2023/04/30 06:56:41;;;;;;;3.33;3.23;;;;;;;;;;5065635;28;20523;-68
2023/04/30 06:59:07;;;;;;;3.10;3.00;;;;;;;;;;5063935;28;20433;-67
2023/04/30 07:01:33;;;;;;;3.10;3.10;;;;;;;;;;5063734;28;20795;-71
2023/04/30 07:03:59;;;;;;;3.00;2.90;;;;;;;;;;5067526;28;20409;-67
2023/04/30 07:06:25;;;;;;;3.20;3.10;;;;;;;;;;5065466;28;20465;-67
2023/04/30 07:08:51;;;;;;;1.97;1.97;;;;;;;;;;5065729;28;20437;-73
2023/04/30 07:11:17;;;;;;;2.93;2.83;;;;;;;;;;5065544;28;20478;-71
2023/04/30 07:13:43;;;;;;;3.73;3.10;;;;;;;;;;5060530;28;20473;-70
2023/04/30 07:16:09;;;;;;;4.53;3.30;;;;;;;;;;5063743;28;20445;-70
2023/04/30 07:18:36;;;;;;;3.40;3.30;;;;;;;;;;5067222;28;20968;-68
2023/04/30 07:21:02;;;;;;;1.50;1.50;;;;;;;;;;5066224;28;20453;-66
2023/04/30 07:23:28;;;;;;;2.70;2.60;;;;;;;;;;5066610;28;20587;-66
2023/04/30 07:25:54;;;;;;;2.80;2.70;;;;;;;;;;5069078;28;20579;-71
2023/04/30 07:28:20;;;;;;;3.00;2.70;;;;;;;;;;5065001;28;20449;-69
2023/04/30 07:30:46;;;;;;;2.87;2.77;;;;;;;;;;5066876;28;20422;-68
2023/04/30 07:33:12;;;;;;;2.50;2.30;;;;;;;;;;5068594;28;20425;-69
2023/04/30 07:35:38;;;;;;;3.03;2.93;;;;;;;;;;5066663;28;20437;-71
2023/04/30 07:38:04;;;;;;;2.80;2.60;;;;;;;;;;5058146;28;20482;-69
2023/04/30 07:40:30;;;;;;;2.40;2.30;;;;;;;;;;5067857;28;20523;-70
2023/04/30 07:42:56;;;;;;;2.60;2.40;;;;;;;;;;5068751;28;20405;-68
2023/04/30 07:45:22;;;;;;;2.77;2.50;;;;;;;;;;5066798;28;20845;-69
2023/04/30 07:47:48;;;;;;;2.27;2.20;;;;;;;;;;5066291;28;20453;-70
2023/04/30 07:50:14;;;;;;;2.20;2.20;;;;;;;;;;5067335;28;20421;-68
2023/04/30 07:52:41;;;;;;;2.17;2.10;;;;;;;;;;5069052;28;20544;-66
2023/04/30 07:55:07;;;;;;;1.40;1.40;;;;;;;;;;5072277;28;20421;-70
2023/04/30 07:57:33;;;;;;;1.43;1.43;;;;;;;;;;5070875;28;20804;-67
2023/04/30 07:59:59;;;;;;;1.90;1.90;;;;;;;;;;5071479;28;20417;-65
2023/04/30 08:02:25;;;;;;;1.80;1.80;;;;;;;;;;5072159;28;20418;-65
2023/04/30 08:04:51;;;;;;;1.73;1.73;;;;;;;;;;5071369;28;20809;-67
2023/04/30 08:07:17;;;;;;;2.03;2.03;;;;;;;;;;5071311;28;20471;-66
2023/04/30 08:09:43;;;;;;;1.70;1.67;;;;;;;;;;5070887;28;20425;-72
2023/04/30 08:12:10;;;;;;;1.57;1.57;;;;;;;;;;5067386;28;20945;-68
2023/04/30 08:14:36;;;;;;;1.37;1.37;;;;;;;;;;5070697;28;20441;-68
2023/04/30 08:17:02;;;;;;;1.33;1.33;;;;;;;;;;5069464;28;20448;-68
2023/04/30 08:19:28;;;;;;;1.70;1.57;;;;;;;;;;5068555;28;20437;-67
2023/04/30 08:21:54;;;;;;;1.33;1.33;;;;;;;;;;5067904;28;20434;-66
2023/04/30 08:24:20;;;;;;;1.30;1.30;;;;;;;;;;5066947;28;21084;-68
2023/04/30 08:26:46;;;;;;;1.10;1.10;;;;;;;;;;5067639;28;20496;-67
2023/04/30 08:29:12;;;;;;;1.87;1.47;;;;;;;;;;5071088;28;20417;-69
2023/04/30 08:31:38;;;;;;;1.27;1.27;;;;;;;;;;5068672;28;20441;-69
2023/04/30 08:34:04;;;;;;;1.67;1.67;;;;;;;;;;5068974;28;20456;-66
2023/04/30 08:36:30;;;;;;;0.90;0.90;;;;;;;;;;5064549;28;20444;-65
2023/04/30 08:38:56;;;;;;;1.57;1.57;;;;;;;;;;5062819;28;20450;-66
2023/04/30 08:41:25;;;;;;;1.80;1.80;;;;;;;;;;5071099;28;20426;-66
2023/04/30 08:43:52;;;;;;;1.30;1.30;;;;;;;;;;5068606;28;20434;-67
2023/04/30 08:46:22;;;;;;;1.03;1.03;;;;;;;;;;5069414;28;21010;-68
2023/04/30 08:48:48;;;;;;;1.00;1.00;;;;;;;;;;5069957;28;20921;-67
2023/04/30 08:51:14;;;;;;;0.90;0.90;;;;;;;;;;5052591;28;20448;-65
2023/04/30 08:53:40;;;;;;;1.37;1.37;;;;;;;;;;5071064;28;20457;-66
2023/04/30 08:56:06;;;;;;;1.00;1.00;;;;;;;;;;5070597;28;20434;-67
2023/04/30 08:58:32;;;;;;;3.47;1.60;;;;;;;;;;5070455;28;20444;-66
2023/04/30 09:00:59;;;;;;;3.00;1.13;;;;;;;;;;5069157;28;20417;-66
2023/04/30 09:03:25;;;;;;;1.30;1.30;;;;;;;;;;5070692;28;20957;-68
2023/04/30 09:05:51;;;;;;;1.40;1.40;;;;;;;;;;5068120;28;20468;-68
2023/04/30 09:08:19;;;;;;;1.37;1.37;;;;;;;;;;5069981;28;20463;-68
2023/04/30 09:10:45;;;;;;;1.10;1.10;;;;;;;;;;5070239;28;20420;-67
2023/04/30 09:13:12;;;;;;;0.90;0.90;;;;;;;;;;5070236;28;20456;-67
2023/04/30 09:15:44;;;;;;;1.00;1.00;;;;;;;;;;5070919;28;20417;-69
2023/04/30 09:18:12;;;;;;;0.90;0.90;;;;;;;;;;5067838;28;20520;-66
2023/04/30 09:20:38;;;;;;;0.93;0.93;;;;;;;;;;5067442;28;20509;-67
2023/04/30 09:23:07;;;;;;;1.17;1.17;;;;;;;;;;5069184;28;20418;-69
2023/04/30 09:25:40;;;;;;;1.53;1.07;;;;;;;;;;5069481;28;20469;-68
2023/04/30 09:28:07;;;;;;;1.20;1.20;;;;;;;;;;5069612;28;20449;-70
2023/04/30 09:30:33;;;;;;;1.10;1.10;;;;;;;;;;5052052;28;20491;-66
2023/04/30 09:32:59;;;;;;;1.10;1.10;;;;;;;;;;5069916;28;20450;-65
2023/04/30 09:35:32;;;;;;;0.70;0.70;;;;;;;;;;5069871;28;20413;-67
2023/04/30 09:38:02;;;;;;;1.00;1.00;;;;;;;;;;5067402;28;20441;-71
2023/04/30 09:40:35;;;;;;;1.00;1.00;;;;;;;;;;5069773;28;20416;-72
2023/04/30 09:43:02;;;;;;;0.87;0.87;;;;;;;;;;5069385;28;20444;-70
2023/04/30 09:45:38;;;;;;;1.20;1.20;;;;;;;;;;5068829;28;20480;-71
2023/04/30 09:48:04;;;;;;;1.00;1.00;;;;;;;;;;5069580;28;20440;-71
2023/04/30 09:50:37;;;;;;;1.20;1.07;;;;;;;;;;5068149;28;20433;-68
2023/04/30 09:53:12;;;;;;;1.17;1.17;;;;;;;;;;5069483;28;20425;-66
2023/04/30 09:55:38;;;;;;;1.03;0.90;;;;;;;;;;5069704;28;20492;-71
2023/04/30 09:58:07;;;;;;;0.83;0.83;;;;;;;;;;5069491;28;20430;-70
2023/04/30 10:00:36;;;;;;;1.37;1.37;;;;;;;;;;5068954;28;20428;-67
2023/04/30 10:03:06;;;;;;;1.60;1.50;;;;;;;;;;5069527;28;20429;-66
2023/04/30 10:05:34;;;;;;;0.90;0.90;;;;;;;;;;5066943;28;20500;-67
2023/04/30 10:08:00;;;;;;;1.20;1.20;;;;;;;;;;5069204;28;21560;-70
2023/04/30 10:10:27;;;;;;;0.90;0.90;;;;;;;;;;5068673;28;20500;-65
2023/04/30 10:13:00;;;;;;;1.20;1.20;;;;;;;;;;5069438;28;20528;-66
2023/04/30 10:15:28;;;;;;;2.30;1.20;;;;;;;;;;5068940;28;20462;-67
2023/04/30 10:18:00;;;;;;;1.10;1.10;;;;;;;;;;5069752;28;20414;-65
2023/04/30 10:20:26;;;;;;;1.33;0.83;;;;;;;;;;5068723;28;20424;-66
2023/04/30 10:22:53;;;;;;;1.07;1.07;;;;;;;;;;5068941;28;20494;-66
2023/04/30 10:25:19;;;;;;;1.07;1.07;;;;;;;;;;5068472;28;20883;-67
2023/04/30 10:27:45;;;;;;;1.33;1.20;;;;;;;;;;5070809;28;20490;-72
2023/04/30 10:30:11;;;;;;;1.10;1.10;;;;;;;;;;5067215;28;20928;-66
2023/04/30 10:32:48;;;;;;;2.37;1.67;;;;;;;;;;5068386;28;20441;-67
2023/04/30 10:35:20;;;;;;;1.30;1.30;;;;;;;;;;5066431;28;20493;-67
2023/04/30 10:37:48;;;;;;;1.43;1.33;;;;;;;;;;5067637;28;20536;-67
2023/04/30 10:40:14;;;;;;;1.33;1.33;;;;;;;;;;5068543;28;20409;-73
2023/04/30 10:42:47;;;;;;;1.30;1.30;;;;;;;;;;5069123;28;20425;-70
2023/04/30 10:45:15;;;;;;;1.20;1.20;;;;;;;;;;5065890;28;21044;-69
2023/04/30 10:47:44;;;;;;;1.00;1.00;;;;;;;;;;5068739;28;20429;-70
2023/04/30 10:50:10;;;;;;;6.50;6.17;;;;;;;;;;5068293;28;20782;-70
2023/04/30 10:52:37;;;;;;;1.93;1.93;;;;;;;;;;5068947;28;20437;-69
2023/04/30 10:55:10;;;;;;;1.17;1.17;;;;;;;;;;5067370;28;20916;-67
2023/04/30 10:57:45;;;;;;;1.13;1.07;;;;;;;;;;5068295;28;20430;-72
2023/04/30 11:00:13;;;;;;;1.00;1.00;;;;;;;;;;5067966;28;20454;-71
2023/04/30 11:02:43;;;;;;;1.03;0.90;;;;;;;;;;5068686;28;20537;-70
2023/04/30 11:05:10;;;;;;;1.13;1.13;;;;;;;;;;5068201;28;20421;-69
2023/04/30 11:07:36;;;;;;;1.80;1.80;;;;;;;;;;5067582;28;20438;-67
2023/04/30 11:10:02;;;;;;;1.50;1.50;;;;;;;;;;5067879;28;20469;-67
2023/04/30 11:12:29;;;;;;;1.40;1.40;;;;;;;;;;5067792;28;20436;-67
2023/04/30 11:15:06;;;;;;;1.03;1.03;;;;;;;;;;5066082;28;20429;-72
2023/04/30 11:17:32;;;;;;;1.20;1.20;;;;;;;;;;5068173;28;20440;-69
2023/04/30 11:20:00;;;;;;;1.30;1.30;;;;;;;;;;5066190;28;20520;-66
2023/04/30 11:22:26;;;;;;;1.20;1.20;;;;;;;;;;5068916;28;20431;-68
2023/04/30 11:24:52;;;;;;;1.20;1.20;;;;;;;;;;5068981;28;20970;-69
2023/04/30 11:27:26;;;;;;;2.10;2.00;;;;;;;;;;5066818;28;20485;-67
2023/04/30 11:29:52;;;;;;;1.40;1.40;;;;;;;;;;5070534;28;21090;-68
2023/04/30 11:32:22;;;;;;;3.07;2.73;;;;;;;;;;5072595;28;20428;-68
2023/04/30 11:34:49;;;;;;;2.83;1.57;;;;;;;;;;5071924;28;20927;-68
2023/04/30 11:37:30;;;;;;;1.67;1.57;;;;;;;;;;5070488;28;20429;-65
2023/04/30 11:40:04;;;;;;;1.80;1.80;;;;;;;;;;5070505;28;20487;-69
2023/04/30 11:42:33;;;;;;;2.20;1.27;;;;;;;;;;5070636;28;20433;-67
2023/04/30 11:45:09;;;;;;;1.67;1.60;;;;;;;;;;5070567;28;20521;-67
2023/04/30 11:47:42;;;;;;;1.27;1.27;;;;;;;;;;5070311;28;20432;-66
2023/04/30 11:50:12;;;;;;;1.47;1.47;;;;;;;;;;5068832;28;21061;-68
2023/04/30 11:52:39;;;;;;;1.37;1.37;;;;;;;;;;5070798;28;20465;-67
2023/04/30 11:55:13;;;;;;;1.27;1.27;;;;;;;;;;5070712;28;20940;-70
2023/04/30 11:57:39;;;;;;;1.00;1.00;;;;;;;;;;5071886;28;20436;-70
2023/04/30 12:00:14;;;;;;;0.90;0.90;;;;;;;;;;5071061;28;20409;-68
2023/04/30 12:02:47;;;;;;;1.30;1.30;;;;;;;;;;5069482;28;20523;-68
2023/04/30 12:05:14;;;;;;;1.10;1.10;;;;;;;;;;5070050;28;20967;-68
2023/04/30 12:07:45;;;;;;;1.00;1.00;;;;;;;;;;5070526;28;20512;-71
2023/04/30 12:10:11;;;;;;;1.10;1.10;;;;;;;;;;5070500;28;20520;-67
2023/04/30 12:12:37;;;;;;;1.00;1.00;;;;;;;;;;5071959;28;20913;-68
2023/04/30 12:15:13;;;;;;;1.30;1.30;;;;;;;;;;5071512;28;20410;-66
2023/04/30 12:17:39;;;;;;;1.30;1.30;;;;;;;;;;5071835;28;20425;-67
2023/04/30 12:20:05;;;;;;;1.20;1.20;;;;;;;;;;5068358;28;20422;-73
2023/04/30 12:22:31;;;;;;;1.30;1.30;;;;;;;;;;5071764;28;20487;-67
2023/04/30 12:24:59;;;;;;;0.97;0.97;;;;;;;;;;5070619;28;20546;-67
2023/04/30 12:27:26;;;;;;;1.20;1.20;;;;;;;;;;5068543;28;20437;-66
2023/04/30 12:29:53;;;;;;;4.00;1.37;;;;;;;;;;5068712;28;20442;-66
2023/04/30 12:32:21;;;;;;;1.07;1.07;;;;;;;;;;5063614;28;20537;-71
2023/04/30 12:34:47;;;;;;;1.40;1.40;;;;;;;;;;5069539;28;20804;-71
2023/04/30 12:37:16;;;;;;;1.27;1.27;;;;;;;;;;5069735;28;20440;-70
2023/04/30 12:39:42;;;;;;;1.83;1.83;;;;;;;;;;5068829;28;20436;-68
2023/04/30 12:42:09;;;;;;;1.00;1.00;;;;;;;;;;5070073;28;20441;-68
2023/04/30 12:44:44;;;;;;;0.80;0.80;;;;;;;;;;5070580;28;20441;-67
2023/04/30 12:47:10;;;;;;;0.97;0.97;;;;;;;;;;5070030;28;20480;-67
2023/04/30 12:49:36;;;;;;;2.00;1.40;;;;;;;;;;5069489;28;20532;-66
2023/04/30 12:52:06;;;;;;;1.70;1.33;;;;;;;;;;5069025;28;20433;-66
2023/04/30 12:54:33;;;;;;;1.10;1.10;;;;;;;;;;5069239;28;20565;-67
2023/04/30 12:57:03;;;;;;;1.30;1.17;;;;;;;;;;5070591;28;20473;-65
2023/04/30 12:59:30;;;;;;;0.90;0.90;;;;;;;;;;5068852;28;20467;-67
2023/04/30 13:02:05;;;;;;;1.30;1.30;;;;;;;;;;5070462;28;20422;-68
2023/04/30 13:04:31;;;;;;;1.20;1.20;;;;;;;;;;5068194;28;20444;-67
2023/04/30 13:06:57;;;;;;;2.03;1.13;;;;;;;;;;5068970;28;20485;-67
2023/04/30 13:09:23;;;;;;;1.53;1.03;;;;;;;;;;5063753;28;20457;-66
2023/04/30 13:11:49;;;;;;;3.00;1.60;;;;;;;;;;5065091;28;20474;-67
2023/04/30 13:14:16;;;;;;;1.00;1.00;;;;;;;;;;5070572;28;20236;-66
2023/04/30 13:16:43;;;;;;;1.17;1.17;;;;;;;;;;5068217;28;20441;-65
2023/04/30 13:19:09;;;;;;;6.07;1.07;;;;;;;;;;5068531;28;20818;-68
2023/04/30 13:21:35;;;;;;;2.13;2.13;;;;;;;;;;5069516;28;20436;-68
2023/04/30 13:24:01;;;;;;;1.60;1.50;;;;;;;;;;5068976;28;20433;-70
2023/04/30 13:26:28;;;;;;;1.17;1.17;;;;;;;;;;5070809;28;20530;-70
2023/04/30 13:28:54;;;;;;;2.60;1.63;;;;;;;;;;5070622;28;20418;-72
2023/04/30 13:31:21;;;;;;;1.43;1.43;;;;;;;;;;5070003;28;20784;-71
2023/04/30 13:33:47;;;;;;;2.13;2.13;;;;;;;;;;5069061;28;20433;-71
2023/04/30 13:36:13;;;;;;;1.20;1.20;;;;;;;;;;5070811;28;20472;-72
2023/04/30 13:38:40;;;;;;;1.30;1.30;;;;;;;;;;5069663;28;20429;-71
2023/04/30 13:41:06;;;;;;;1.67;1.60;;;;;;;;;;5069840;28;20413;-72
2023/04/30 13:43:32;;;;;;;1.10;1.10;;;;;;;;;;5070547;28;20429;-70
2023/04/30 13:45:58;;;;;;;1.17;1.13;;;;;;;;;;5069116;28;20481;-72
2023/04/30 13:48:25;;;;;;;1.47;1.47;;;;;;;;;;5070431;28;20508;-71
2023/04/30 13:50:54;;;;;;;1.30;1.30;;;;;;;;;;5069241;28;20443;-71
2023/04/30 13:53:20;;;;;;;1.10;1.10;;;;;;;;;;5070197;28;20422;-68
2023/04/30 13:55:46;;;;;;;1.40;1.40;;;;;;;;;;5070335;28;20452;-68
2023/04/30 13:58:12;;;;;;;1.30;1.30;;;;;;;;;;5070374;28;20421;-69
2023/04/30 14:00:38;;;;;;;1.27;1.27;;;;;;;;;;5067922;28;20439;-72
2023/04/30 14:03:05;;;;;;;2.63;1.10;;;;;;;;;;5070115;28;20413;-70
2023/04/30 14:05:31;;;;;;;1.10;1.10;;;;;;;;;;5069638;28;20496;-70
2023/04/30 14:07:57;;;;;;;1.47;1.47;;;;;;;;;;5070208;28;20782;-70
2023/04/30 14:10:23;;;;;;;1.40;1.40;;;;;;;;;;5069574;28;20921;-72
2023/04/30 14:12:50;;;;;;;1.40;1.40;;;;;;;;;;5068676;28;20416;-70
2023/04/30 14:15:15;;;;;;;1.47;1.47;;;;;;;;;;5068567;28;20499;-70
2023/04/30 14:17:43;;;;;;;1.90;0.93;;;;;;;;;;5070306;28;20413;-72
2023/04/30 14:20:10;;;;;;;1.57;1.57;;;;;;;;;;5069245;28;20429;-69
2023/04/30 14:22:37;;;;;;;1.40;1.40;;;;;;;;;;5069950;28;20414;-69
2023/04/30 14:25:04;;;;;;;1.30;1.30;;;;;;;;;;5069925;28;20425;-67
2023/04/30 14:27:30;;;;;;;1.10;1.10;;;;;;;;;;5069677;28;20473;-72
2023/04/30 14:29:56;;;;;;;1.43;1.43;;;;;;;;;;5068335;28;20428;-71
2023/04/30 14:32:24;;;;;;;1.80;1.70;;;;;;;;;;5069914;28;20409;-69
2023/04/30 14:34:50;;;;;;;0.90;0.90;;;;;;;;;;5069614;28;20479;-69
2023/04/30 14:37:16;;;;;;;2.00;1.90;;;;;;;;;;5068349;28;20425;-70
2023/04/30 14:39:42;;;;;;;7.50;1.97;;;;;;;;;;5069022;28;20439;-72
2023/04/30 14:42:09;;;;;;;3.50;1.23;;;;;;;;;;5069818;28;20470;-70
2023/04/30 14:44:35;;;;;;;1.03;1.03;;;;;;;;;;5069414;28;20430;-68